sensor_id;sensor_type;location;lat;lon;timestamp;pressure;altitude;pressure_sealevel;temperature
67353;BMP180;54238;52.278;21.056;2023-07-09T00:00:03;100898.40;;;20.10
67353;BMP180;54238;52.278;21.056;2023-07-09T00:02:34;100899.20;;;20.00
67353;BMP180;54238;52.278;21.056;2023-07-09T00:05:03;100901.60;;;20.00
67353;BMP180;54238;52.278;21.056;2023-07-09T00:07:34;100895.40;;;20.00
67353;BMP180;54238;52.278;21.056;2023-07-09T00:10:16;100899.80;;;20.00
67353;BMP180;54238;52.278;21.056;2023-07-09T00:12:46;100898.20;;;20.00
67353;BMP180;54238;52.278;21.056;2023-07-09T00:15:21;100901.20;;;20.00
67353;BMP180;54238;52.278;21.056;2023-07-09T00:17:53;100906.80;;;20.00
67353;BMP180;54238;52.278;21.056;2023-07-09T00:20:20;100903.80;;;20.00
67353;BMP180;54238;52.278;21.056;2023-07-09T00:22:50;100898.60;;;19.90
67353;BMP180;54238;52.278;21.056;2023-07-09T00:25:21;100893.80;;;19.90
67353;BMP180;54238;52.278;21.056;2023-07-09T00:27:50;100897.40;;;19.86
67353;BMP180;54238;52.278;21.056;2023-07-09T00:30:23;100897.40;;;19.80
67353;BMP180;54238;52.278;21.056;2023-07-09T00:32:50;100898.80;;;19.80
67353;BMP180;54238;52.278;21.056;2023-07-09T00:35:19;100899.40;;;19.70
67353;BMP180;54238;52.278;21.056;2023-07-09T00:37:48;100906.40;;;19.70
67353;BMP180;54238;52.278;21.056;2023-07-09T00:40:20;100906.40;;;19.60
67353;BMP180;54238;52.278;21.056;2023-07-09T00:42:54;100904.80;;;19.60
67353;BMP180;54238;52.278;21.056;2023-07-09T00:45:27;100905.20;;;19.60
67353;BMP180;54238;52.278;21.056;2023-07-09T00:47:56;100907.60;;;19.60
67353;BMP180;54238;52.278;21.056;2023-07-09T00:50:42;100912.00;;;19.50
67353;BMP180;54238;52.278;21.056;2023-07-09T00:53:25;100905.00;;;19.50
67353;BMP180;54238;52.278;21.056;2023-07-09T00:56:02;100903.20;;;19.40
67353;BMP180;54238;52.278;21.056;2023-07-09T00:58:37;100898.40;;;19.40
67353;BMP180;54238;52.278;21.056;2023-07-09T01:01:09;100897.00;;;19.40
67353;BMP180;54238;52.278;21.056;2023-07-09T01:03:52;100898.00;;;19.36
67353;BMP180;54238;52.278;21.056;2023-07-09T01:06:34;100902.60;;;19.40
67353;BMP180;54238;52.278;21.056;2023-07-09T01:09:09;100901.80;;;19.40
67353;BMP180;54238;52.278;21.056;2023-07-09T01:11:41;100905.40;;;19.36
67353;BMP180;54238;52.278;21.056;2023-07-09T01:14:13;100907.00;;;19.40
67353;BMP180;54238;52.278;21.056;2023-07-09T01:16:53;100909.60;;;19.40
67353;BMP180;54238;52.278;21.056;2023-07-09T01:19:27;100907.00;;;19.30
67353;BMP180;54238;52.278;21.056;2023-07-09T01:22:01;100913.00;;;19.30
67353;BMP180;54238;52.278;21.056;2023-07-09T01:27:26;100911.20;;;19.20
67353;BMP180;54238;52.278;21.056;2023-07-09T01:29:57;100910.60;;;19.20
67353;BMP180;54238;52.278;21.056;2023-07-09T01:32:28;100911.60;;;19.10
67353;BMP180;54238;52.278;21.056;2023-07-09T01:35:00;100910.80;;;19.10
67353;BMP180;54238;52.278;21.056;2023-07-09T01:37:39;100911.20;;;19.00
67353;BMP180;54238;52.278;21.056;2023-07-09T01:40:09;100910.40;;;19.00
67353;BMP180;54238;52.278;21.056;2023-07-09T01:42:41;100912.20;;;19.00
67353;BMP180;54238;52.278;21.056;2023-07-09T01:45:12;100903.60;;;18.90
67353;BMP180;54238;52.278;21.056;2023-07-09T01:47:40;100904.60;;;18.90
67353;BMP180;54238;52.278;21.056;2023-07-09T01:50:11;100905.80;;;18.90
67353;BMP180;54238;52.278;21.056;2023-07-09T01:52:46;100906.80;;;18.90
67353;BMP180;54238;52.278;21.056;2023-07-09T01:55:19;100906.80;;;18.90
67353;BMP180;54238;52.278;21.056;2023-07-09T01:57:51;100908.00;;;18.90
67353;BMP180;54238;52.278;21.056;2023-07-09T02:00:23;100911.40;;;18.80
67353;BMP180;54238;52.278;21.056;2023-07-09T02:02:55;100911.80;;;18.70
67353;BMP180;54238;52.278;21.056;2023-07-09T02:05:25;100911.40;;;18.60
67353;BMP180;54238;52.278;21.056;2023-07-09T02:07:53;100907.80;;;18.60
67353;BMP180;54238;52.278;21.056;2023-07-09T02:10:21;100915.40;;;18.60
67353;BMP180;54238;52.278;21.056;2023-07-09T02:12:53;100918.40;;;18.50
67353;BMP180;54238;52.278;21.056;2023-07-09T02:15:20;100920.00;;;18.50
67353;BMP180;54238;52.278;21.056;2023-07-09T02:17:50;100914.00;;;18.46
67353;BMP180;54238;52.278;21.056;2023-07-09T02:20:24;100916.60;;;18.42
67353;BMP180;54238;52.278;21.056;2023-07-09T02:22:55;100915.00;;;18.50
67353;BMP180;54238;52.278;21.056;2023-07-09T02:25:24;100914.20;;;18.50
67353;BMP180;54238;52.278;21.056;2023-07-09T02:27:51;100917.20;;;18.50
67353;BMP180;54238;52.278;21.056;2023-07-09T02:30:18;100914.60;;;18.40
67353;BMP180;54238;52.278;21.056;2023-07-09T02:32:48;100913.60;;;18.40
67353;BMP180;54238;52.278;21.056;2023-07-09T02:35:21;100917.00;;;18.30
67353;BMP180;54238;52.278;21.056;2023-07-09T02:37:53;100917.40;;;18.30
67353;BMP180;54238;52.278;21.056;2023-07-09T02:40:23;100919.40;;;18.30
67353;BMP180;54238;52.278;21.056;2023-07-09T02:42:55;100912.40;;;18.40
67353;BMP180;54238;52.278;21.056;2023-07-09T02:45:29;100919.60;;;18.30
67353;BMP180;54238;52.278;21.056;2023-07-09T02:47:56;100918.80;;;18.30
67353;BMP180;54238;52.278;21.056;2023-07-09T02:50:23;100922.40;;;18.30
67353;BMP180;54238;52.278;21.056;2023-07-09T02:52:53;100919.40;;;18.20
67353;BMP180;54238;52.278;21.056;2023-07-09T02:55:20;100918.20;;;18.20
67353;BMP180;54238;52.278;21.056;2023-07-09T02:57:48;100921.40;;;18.12
67353;BMP180;54238;52.278;21.056;2023-07-09T03:00:16;100923.40;;;18.10
67353;BMP180;54238;52.278;21.056;2023-07-09T03:04:57;100916.80;;;18.10
67353;BMP180;54238;52.278;21.056;2023-07-09T03:07:27;100919.40;;;18.10
67353;BMP180;54238;52.278;21.056;2023-07-09T03:09:59;100922.00;;;18.10
67353;BMP180;54238;52.278;21.056;2023-07-09T03:12:31;100922.00;;;18.10
67353;BMP180;54238;52.278;21.056;2023-07-09T03:15:03;100926.80;;;18.10
67353;BMP180;54238;52.278;21.056;2023-07-09T03:17:33;100927.80;;;18.00
67353;BMP180;54238;52.278;21.056;2023-07-09T03:20:00;100932.20;;;18.00
67353;BMP180;54238;52.278;21.056;2023-07-09T03:22:29;100926.00;;;17.90
67353;BMP180;54238;52.278;21.056;2023-07-09T03:25:01;100931.40;;;17.90
67353;BMP180;54238;52.278;21.056;2023-07-09T03:27:30;100931.60;;;17.80
67353;BMP180;54238;52.278;21.056;2023-07-09T03:30:01;100932.60;;;17.80
67353;BMP180;54238;52.278;21.056;2023-07-09T03:32:29;100933.20;;;17.80
67353;BMP180;54238;52.278;21.056;2023-07-09T03:35:04;100936.80;;;17.80
67353;BMP180;54238;52.278;21.056;2023-07-09T03:37:34;100940.20;;;17.80
67353;BMP180;54238;52.278;21.056;2023-07-09T03:40:08;100941.40;;;17.80
67353;BMP180;54238;52.278;21.056;2023-07-09T03:42:39;100942.40;;;17.80
67353;BMP180;54238;52.278;21.056;2023-07-09T03:45:14;100944.40;;;17.70
67353;BMP180;54238;52.278;21.056;2023-07-09T03:47:44;100950.20;;;17.80
67353;BMP180;54238;52.278;21.056;2023-07-09T03:50:11;100949.00;;;17.80
67353;BMP180;54238;52.278;21.056;2023-07-09T03:52:38;100951.60;;;17.90
67353;BMP180;54238;52.278;21.056;2023-07-09T03:55:08;100945.40;;;17.80
67353;BMP180;54238;52.278;21.056;2023-07-09T03:57:38;100944.40;;;17.80
67353;BMP180;54238;52.278;21.056;2023-07-09T04:00:09;100949.20;;;17.90
67353;BMP180;54238;52.278;21.056;2023-07-09T04:02:42;100947.60;;;17.90
67353;BMP180;54238;52.278;21.056;2023-07-09T04:05:14;100945.00;;;17.90
67353;BMP180;54238;52.278;21.056;2023-07-09T04:07:45;100949.80;;;17.90
67353;BMP180;54238;52.278;21.056;2023-07-09T04:10:19;100950.80;;;18.00
67353;BMP180;54238;52.278;21.056;2023-07-09T04:12:47;100948.00;;;18.00
67353;BMP180;54238;52.278;21.056;2023-07-09T04:15:14;100947.00;;;18.00
67353;BMP180;54238;52.278;21.056;2023-07-09T04:17:44;100948.40;;;18.00
67353;BMP180;54238;52.278;21.056;2023-07-09T04:20:14;100950.20;;;18.10
67353;BMP180;54238;52.278;21.056;2023-07-09T04:22:43;100955.20;;;18.10
67353;BMP180;54238;52.278;21.056;2023-07-09T04:25:12;100954.00;;;18.20
67353;BMP180;54238;52.278;21.056;2023-07-09T04:27:42;100956.20;;;18.20
67353;BMP180;54238;52.278;21.056;2023-07-09T04:30:14;100955.00;;;18.30
67353;BMP180;54238;52.278;21.056;2023-07-09T04:32:43;100957.20;;;18.40
67353;BMP180;54238;52.278;21.056;2023-07-09T04:35:14;100957.80;;;18.40
67353;BMP180;54238;52.278;21.056;2023-07-09T04:37:45;100966.80;;;18.50
67353;BMP180;54238;52.278;21.056;2023-07-09T04:40:20;100969.60;;;18.50
67353;BMP180;54238;52.278;21.056;2023-07-09T04:42:52;100969.60;;;18.60
67353;BMP180;54238;52.278;21.056;2023-07-09T04:45:21;100969.00;;;18.60
67353;BMP180;54238;52.278;21.056;2023-07-09T04:47:48;100973.60;;;18.70
67353;BMP180;54238;52.278;21.056;2023-07-09T04:50:18;100974.40;;;18.70
67353;BMP180;54238;52.278;21.056;2023-07-09T04:52:45;100975.40;;;18.80
67353;BMP180;54238;52.278;21.056;2023-07-09T04:55:15;100975.00;;;18.80
67353;BMP180;54238;52.278;21.056;2023-07-09T04:57:48;100975.80;;;18.88
67353;BMP180;54238;52.278;21.056;2023-07-09T05:00:16;100971.80;;;18.90
67353;BMP180;54238;52.278;21.056;2023-07-09T05:02:46;100977.40;;;19.00
67353;BMP180;54238;52.278;21.056;2023-07-09T05:05:18;100975.60;;;19.00
67353;BMP180;54238;52.278;21.056;2023-07-09T05:07:47;100973.80;;;19.10
67353;BMP180;54238;52.278;21.056;2023-07-09T05:10:15;100976.40;;;19.10
67353;BMP180;54238;52.278;21.056;2023-07-09T05:12:54;100978.60;;;19.20
67353;BMP180;54238;52.278;21.056;2023-07-09T05:15:26;100976.20;;;19.26
67353;BMP180;54238;52.278;21.056;2023-07-09T05:17:55;100982.40;;;19.30
67353;BMP180;54238;52.278;21.056;2023-07-09T05:20:27;100977.80;;;19.40
67353;BMP180;54238;52.278;21.056;2023-07-09T05:22:54;100978.20;;;19.40
67353;BMP180;54238;52.278;21.056;2023-07-09T05:25:23;100983.80;;;19.40
67353;BMP180;54238;52.278;21.056;2023-07-09T05:27:51;100992.20;;;19.50
67353;BMP180;54238;52.278;21.056;2023-07-09T05:30:20;100992.60;;;19.52
67353;BMP180;54238;52.278;21.056;2023-07-09T05:32:58;100996.40;;;19.60
67353;BMP180;54238;52.278;21.056;2023-07-09T05:35:28;100998.20;;;19.70
67353;BMP180;54238;52.278;21.056;2023-07-09T05:37:55;101001.40;;;19.80
67353;BMP180;54238;52.278;21.056;2023-07-09T05:40:22;100994.80;;;19.80
67353;BMP180;54238;52.278;21.056;2023-07-09T05:42:52;100991.40;;;19.90
67353;BMP180;54238;52.278;21.056;2023-07-09T05:45:21;100991.60;;;19.90
67353;BMP180;54238;52.278;21.056;2023-07-09T05:47:52;100990.00;;;20.00
67353;BMP180;54238;52.278;21.056;2023-07-09T05:50:20;100995.40;;;20.10
67353;BMP180;54238;52.278;21.056;2023-07-09T05:52:50;100997.20;;;20.18
67353;BMP180;54238;52.278;21.056;2023-07-09T05:55:17;100995.40;;;20.20
67353;BMP180;54238;52.278;21.056;2023-07-09T05:57:45;100990.00;;;20.30
67353;BMP180;54238;52.278;21.056;2023-07-09T06:00:17;100991.00;;;20.30
67353;BMP180;54238;52.278;21.056;2023-07-09T06:02:47;100995.60;;;20.40
67353;BMP180;54238;52.278;21.056;2023-07-09T06:05:14;100999.00;;;20.40
67353;BMP180;54238;52.278;21.056;2023-07-09T06:07:44;101005.80;;;20.50
67353;BMP180;54238;52.278;21.056;2023-07-09T06:10:14;101003.60;;;20.50
67353;BMP180;54238;52.278;21.056;2023-07-09T06:12:42;101005.60;;;20.60
67353;BMP180;54238;52.278;21.056;2023-07-09T06:15:13;101002.80;;;20.60
67353;BMP180;54238;52.278;21.056;2023-07-09T06:17:41;101000.20;;;20.70
67353;BMP180;54238;52.278;21.056;2023-07-09T06:20:13;101000.20;;;20.80
67353;BMP180;54238;52.278;21.056;2023-07-09T06:22:41;101000.20;;;20.90
67353;BMP180;54238;52.278;21.056;2023-07-09T06:25:15;101000.40;;;20.94
67353;BMP180;54238;52.278;21.056;2023-07-09T06:27:42;101004.40;;;21.06
67353;BMP180;54238;52.278;21.056;2023-07-09T06:30:10;100997.40;;;21.10
67353;BMP180;54238;52.278;21.056;2023-07-09T06:32:37;101001.00;;;21.20
67353;BMP180;54238;52.278;21.056;2023-07-09T06:35:05;100999.00;;;21.32
67353;BMP180;54238;52.278;21.056;2023-07-09T06:37:38;100998.80;;;21.42
67353;BMP180;54238;52.278;21.056;2023-07-09T06:40:10;101005.00;;;21.60
67353;BMP180;54238;52.278;21.056;2023-07-09T06:42:42;101005.40;;;21.70
67353;BMP180;54238;52.278;21.056;2023-07-09T06:45:16;101009.00;;;21.78
67353;BMP180;54238;52.278;21.056;2023-07-09T06:47:48;101006.60;;;21.88
67353;BMP180;54238;52.278;21.056;2023-07-09T06:50:21;101014.00;;;22.00
67353;BMP180;54238;52.278;21.056;2023-07-09T06:52:54;101017.60;;;22.10
67353;BMP180;54238;52.278;21.056;2023-07-09T06:55:23;101019.40;;;22.20
67353;BMP180;54238;52.278;21.056;2023-07-09T06:57:52;101019.80;;;22.30
67353;BMP180;54238;52.278;21.056;2023-07-09T07:00:24;101015.40;;;22.30
67353;BMP180;54238;52.278;21.056;2023-07-09T07:02:54;101017.00;;;22.40
67353;BMP180;54238;52.278;21.056;2023-07-09T07:05:21;101020.20;;;22.50
67353;BMP180;54238;52.278;21.056;2023-07-09T07:07:48;101019.20;;;22.60
67353;BMP180;54238;52.278;21.056;2023-07-09T07:10:18;101016.20;;;22.60
67353;BMP180;54238;52.278;21.056;2023-07-09T07:12:50;101019.80;;;22.70
67353;BMP180;54238;52.278;21.056;2023-07-09T07:15:18;101020.00;;;22.80
67353;BMP180;54238;52.278;21.056;2023-07-09T07:17:46;101022.20;;;22.90
67353;BMP180;54238;52.278;21.056;2023-07-09T07:20:16;101024.80;;;22.90
67353;BMP180;54238;52.278;21.056;2023-07-09T07:22:51;101029.80;;;23.00
67353;BMP180;54238;52.278;21.056;2023-07-09T07:25:24;101031.40;;;23.10
67353;BMP180;54238;52.278;21.056;2023-07-09T07:27:52;101026.00;;;23.20
67353;BMP180;54238;52.278;21.056;2023-07-09T07:30:21;101023.20;;;23.30
67353;BMP180;54238;52.278;21.056;2023-07-09T07:32:54;101012.80;;;23.44
67353;BMP180;54238;52.278;21.056;2023-07-09T07:35:21;101015.20;;;23.52
67353;BMP180;54238;52.278;21.056;2023-07-09T07:37:51;101013.40;;;23.60
67353;BMP180;54238;52.278;21.056;2023-07-09T07:40:18;101010.20;;;23.70
67353;BMP180;54238;52.278;21.056;2023-07-09T07:42:48;101006.80;;;23.80
67353;BMP180;54238;52.278;21.056;2023-07-09T07:45:15;101002.60;;;23.90
67353;BMP180;54238;52.278;21.056;2023-07-09T07:47:48;101003.00;;;23.90
67353;BMP180;54238;52.278;21.056;2023-07-09T07:50:20;101002.60;;;24.00
67353;BMP180;54238;52.278;21.056;2023-07-09T07:52:50;101003.60;;;24.00
67353;BMP180;54238;52.278;21.056;2023-07-09T07:55:17;100999.00;;;24.06
67353;BMP180;54238;52.278;21.056;2023-07-09T07:57:47;100998.00;;;24.10
67353;BMP180;54238;52.278;21.056;2023-07-09T08:00:17;100995.40;;;24.20
67353;BMP180;54238;52.278;21.056;2023-07-09T08:02:44;101001.60;;;24.30
67353;BMP180;54238;52.278;21.056;2023-07-09T08:05:19;100996.80;;;24.40
67353;BMP180;54238;52.278;21.056;2023-07-09T08:07:51;101000.80;;;24.50
67353;BMP180;54238;52.278;21.056;2023-07-09T08:10:20;101001.00;;;24.60
67353;BMP180;54238;52.278;21.056;2023-07-09T08:12:48;101000.80;;;24.70
67353;BMP180;54238;52.278;21.056;2023-07-09T08:15:15;101002.20;;;24.82
67353;BMP180;54238;52.278;21.056;2023-07-09T08:17:44;101002.60;;;24.90
67353;BMP180;54238;52.278;21.056;2023-07-09T08:20:11;101001.60;;;25.00
67353;BMP180;54238;52.278;21.056;2023-07-09T08:22:42;100999.60;;;25.10
67353;BMP180;54238;52.278;21.056;2023-07-09T08:25:09;101003.40;;;25.20
67353;BMP180;54238;52.278;21.056;2023-07-09T08:27:39;101009.60;;;25.20
67353;BMP180;54238;52.278;21.056;2023-07-09T08:30:08;101008.80;;;25.20
67353;BMP180;54238;52.278;21.056;2023-07-09T08:32:38;101014.00;;;25.30
67353;BMP180;54238;52.278;21.056;2023-07-09T08:35:10;101017.60;;;25.30
67353;BMP180;54238;52.278;21.056;2023-07-09T08:37:41;101014.60;;;25.30
67353;BMP180;54238;52.278;21.056;2023-07-09T08:40:15;101014.80;;;25.40
67353;BMP180;54238;52.278;21.056;2023-07-09T08:42:47;101012.60;;;25.40
67353;BMP180;54238;52.278;21.056;2023-07-09T08:51:13;101001.00;;;25.70
67353;BMP180;54238;52.278;21.056;2023-07-09T08:53:57;100997.80;;;25.84
67353;BMP180;54238;52.278;21.056;2023-07-09T08:56:32;100995.60;;;26.00
67353;BMP180;54238;52.278;21.056;2023-07-09T08:59:05;100996.60;;;26.10
67353;BMP180;54238;52.278;21.056;2023-07-09T09:01:38;100997.40;;;26.10
67353;BMP180;54238;52.278;21.056;2023-07-09T09:04:25;100997.20;;;26.14
67353;BMP180;54238;52.278;21.056;2023-07-09T09:07:12;101003.00;;;26.30
67353;BMP180;54238;52.278;21.056;2023-07-09T09:09:56;100999.60;;;26.24
67353;BMP180;54238;52.278;21.056;2023-07-09T09:12:41;100999.40;;;26.30
67353;BMP180;54238;52.278;21.056;2023-07-09T09:15:18;100998.20;;;26.50
67353;BMP180;54238;52.278;21.056;2023-07-09T09:17:54;100997.40;;;26.60
67353;BMP180;54238;52.278;21.056;2023-07-09T09:20:27;101002.20;;;26.80
67353;BMP180;54238;52.278;21.056;2023-07-09T09:23:15;101003.40;;;27.00
67353;BMP180;54238;52.278;21.056;2023-07-09T09:25:52;101003.60;;;27.20
67353;BMP180;54238;52.278;21.056;2023-07-09T09:28:26;101004.60;;;27.32
67353;BMP180;54238;52.278;21.056;2023-07-09T09:30:56;100999.40;;;27.50
67353;BMP180;54238;52.278;21.056;2023-07-09T09:33:40;101000.40;;;27.60
67353;BMP180;54238;52.278;21.056;2023-07-09T09:36:22;101002.20;;;27.50
67353;BMP180;54238;52.278;21.056;2023-07-09T09:38:55;101004.20;;;27.50
67353;BMP180;54238;52.278;21.056;2023-07-09T09:41:31;101003.20;;;27.70
67353;BMP180;54238;52.278;21.056;2023-07-09T09:44:02;101002.60;;;27.90
67353;BMP180;54238;52.278;21.056;2023-07-09T09:46:32;100998.00;;;28.00
67353;BMP180;54238;52.278;21.056;2023-07-09T09:49:02;101004.20;;;28.20
67353;BMP180;54238;52.278;21.056;2023-07-09T09:51:34;101006.00;;;28.30
67353;BMP180;54238;52.278;21.056;2023-07-09T09:54:02;101002.00;;;28.40
67353;BMP180;54238;52.278;21.056;2023-07-09T09:56:36;100999.20;;;28.58
67353;BMP180;54238;52.278;21.056;2023-07-09T09:59:05;100996.40;;;28.80
67353;BMP180;54238;52.278;21.056;2023-07-09T10:01:35;101010.40;;;28.98
67353;BMP180;54238;52.278;21.056;2023-07-09T10:04:05;101002.20;;;29.10
67353;BMP180;54238;52.278;21.056;2023-07-09T10:06:42;101003.60;;;29.30
67353;BMP180;54238;52.278;21.056;2023-07-09T10:39:13;100990.40;;;31.00
67353;BMP180;54238;52.278;21.056;2023-07-09T10:41:43;100992.40;;;31.40
67353;BMP180;54238;52.278;21.056;2023-07-09T10:47:02;100991.40;;;32.00
67353;BMP180;54238;52.278;21.056;2023-07-09T10:49:38;100984.80;;;31.80
67353;BMP180;54238;52.278;21.056;2023-07-09T10:52:13;100984.00;;;31.86
67353;BMP180;54238;52.278;21.056;2023-07-09T10:57:44;100980.20;;;32.40
67353;BMP180;54238;52.278;21.056;2023-07-09T11:00:19;100970.00;;;32.76
67353;BMP180;54238;52.278;21.056;2023-07-09T11:03:05;100970.20;;;32.94
67353;BMP180;54238;52.278;21.056;2023-07-09T11:05:37;100979.80;;;33.20
67353;BMP180;54238;52.278;21.056;2023-07-09T11:08:42;100973.60;;;33.30
67353;BMP180;54238;52.278;21.056;2023-07-09T11:11:40;100973.20;;;33.50
67353;BMP180;54238;52.278;21.056;2023-07-09T11:14:58;100979.40;;;33.70
67353;BMP180;54238;52.278;21.056;2023-07-09T11:17:28;100976.80;;;33.60
67353;BMP180;54238;52.278;21.056;2023-07-09T11:20:16;100980.60;;;33.70
67353;BMP180;54238;52.278;21.056;2023-07-09T11:23:07;100984.20;;;34.00
67353;BMP180;54238;52.278;21.056;2023-07-09T11:26:02;100984.00;;;34.30
67353;BMP180;54238;52.278;21.056;2023-07-09T11:28:38;100982.60;;;34.58
67353;BMP180;54238;52.278;21.056;2023-07-09T11:31:39;100986.60;;;34.82
67353;BMP180;54238;52.278;21.056;2023-07-09T11:36:57;100981.80;;;35.30
67353;BMP180;54238;52.278;21.056;2023-07-09T11:39:29;100979.80;;;35.54
67353;BMP180;54238;52.278;21.056;2023-07-09T11:41:58;100979.00;;;35.70
67353;BMP180;54238;52.278;21.056;2023-07-09T11:44:33;100977.00;;;35.86
67353;BMP180;54238;52.278;21.056;2023-07-09T11:47:19;100974.20;;;36.00
67353;BMP180;54238;52.278;21.056;2023-07-09T11:49:59;100979.20;;;36.20
67353;BMP180;54238;52.278;21.056;2023-07-09T11:52:40;100976.20;;;36.40
67353;BMP180;54238;52.278;21.056;2023-07-09T11:55:44;100976.00;;;36.58
67353;BMP180;54238;52.278;21.056;2023-07-09T11:58:20;100963.00;;;36.82
67353;BMP180;54238;52.278;21.056;2023-07-09T12:00:51;100971.40;;;36.90
67353;BMP180;54238;52.278;21.056;2023-07-09T12:03:39;100966.60;;;37.00
67353;BMP180;54238;52.278;21.056;2023-07-09T12:06:29;100971.20;;;37.20
67353;BMP180;54238;52.278;21.056;2023-07-09T12:09:04;100970.00;;;37.40
67353;BMP180;54238;52.278;21.056;2023-07-09T12:11:34;100966.80;;;37.30
67353;BMP180;54238;52.278;21.056;2023-07-09T12:14:13;100971.20;;;37.42
67353;BMP180;54238;52.278;21.056;2023-07-09T12:16:48;100966.20;;;37.70
67353;BMP180;54238;52.278;21.056;2023-07-09T12:19:23;100957.80;;;37.70
67353;BMP180;54238;52.278;21.056;2023-07-09T12:21:57;100957.00;;;37.70
67353;BMP180;54238;52.278;21.056;2023-07-09T12:24:38;100946.20;;;37.48
67353;BMP180;54238;52.278;21.056;2023-07-09T12:27:23;100947.80;;;37.46
67353;BMP180;54238;52.278;21.056;2023-07-09T12:29:57;100949.80;;;37.50
67353;BMP180;54238;52.278;21.056;2023-07-09T12:32:29;100947.20;;;37.78
67353;BMP180;54238;52.278;21.056;2023-07-09T12:34:59;100958.00;;;37.90
67353;BMP180;54238;52.278;21.056;2023-07-09T12:37:33;100956.60;;;38.10
67353;BMP180;54238;52.278;21.056;2023-07-09T12:40:17;100950.60;;;38.30
67353;BMP180;54238;52.278;21.056;2023-07-09T12:42:50;100949.40;;;38.50
67353;BMP180;54238;52.278;21.056;2023-07-09T12:45:20;100948.80;;;38.50
67353;BMP180;54238;52.278;21.056;2023-07-09T12:47:50;100942.80;;;38.80
67353;BMP180;54238;52.278;21.056;2023-07-09T12:50:31;100940.20;;;39.00
67353;BMP180;54238;52.278;21.056;2023-07-09T12:53:17;100943.60;;;39.10
67353;BMP180;54238;52.278;21.056;2023-07-09T12:55:49;100951.40;;;39.30
67353;BMP180;54238;52.278;21.056;2023-07-09T12:58:22;100946.00;;;39.50
67353;BMP180;54238;52.278;21.056;2023-07-09T13:00:56;100943.80;;;39.50
67353;BMP180;54238;52.278;21.056;2023-07-09T13:03:28;100942.60;;;39.60
67353;BMP180;54238;52.278;21.056;2023-07-09T13:08:43;100938.00;;;39.80
67353;BMP180;54238;52.278;21.056;2023-07-09T13:11:18;100940.80;;;39.70
67353;BMP180;54238;52.278;21.056;2023-07-09T13:14:03;100942.60;;;39.60
67353;BMP180;54238;52.278;21.056;2023-07-09T13:16:40;100942.80;;;39.60
67353;BMP180;54238;52.278;21.056;2023-07-09T13:19:09;100942.00;;;39.60
67353;BMP180;54238;52.278;21.056;2023-07-09T13:21:43;100942.60;;;39.38
67353;BMP180;54238;52.278;21.056;2023-07-09T13:24:23;100949.00;;;38.88
67353;BMP180;54238;52.278;21.056;2023-07-09T13:26:51;100948.80;;;38.60
67353;BMP180;54238;52.278;21.056;2023-07-09T13:29:23;100954.00;;;38.50
67353;BMP180;54238;52.278;21.056;2023-07-09T13:31:51;100948.20;;;38.38
67353;BMP180;54238;52.278;21.056;2023-07-09T13:34:27;100942.80;;;38.00
67353;BMP180;54238;52.278;21.056;2023-07-09T13:37:03;100940.00;;;38.00
67353;BMP180;54238;52.278;21.056;2023-07-09T13:39:30;100941.40;;;37.90
67353;BMP180;54238;52.278;21.056;2023-07-09T13:42:01;100939.00;;;38.00
67353;BMP180;54238;52.278;21.056;2023-07-09T13:44:30;100939.80;;;38.12
67353;BMP180;54238;52.278;21.056;2023-07-09T13:47:02;100938.20;;;38.36
67353;BMP180;54238;52.278;21.056;2023-07-09T13:49:31;100946.20;;;38.52
67353;BMP180;54238;52.278;21.056;2023-07-09T13:52:01;100945.40;;;38.68
67353;BMP180;54238;52.278;21.056;2023-07-09T13:54:32;100948.40;;;38.78
67353;BMP180;54238;52.278;21.056;2023-07-09T13:57:17;100949.40;;;38.82
67353;BMP180;54238;52.278;21.056;2023-07-09T13:59:46;100937.80;;;38.60
67353;BMP180;54238;52.278;21.056;2023-07-09T14:02:25;100927.80;;;38.66
67353;BMP180;54238;52.278;21.056;2023-07-09T14:05:04;100927.40;;;38.60
67353;BMP180;54238;52.278;21.056;2023-07-09T14:07:40;100926.60;;;38.60
67353;BMP180;54238;52.278;21.056;2023-07-09T14:10:13;100929.80;;;38.76
67353;BMP180;54238;52.278;21.056;2023-07-09T14:12:47;100927.60;;;38.80
67353;BMP180;54238;52.278;21.056;2023-07-09T14:15:19;100930.40;;;39.00
67353;BMP180;54238;52.278;21.056;2023-07-09T14:17:49;100933.80;;;39.00
67353;BMP180;54238;52.278;21.056;2023-07-09T14:20:19;100929.20;;;39.00
67353;BMP180;54238;52.278;21.056;2023-07-09T14:22:52;100928.40;;;39.14
67353;BMP180;54238;52.278;21.056;2023-07-09T14:25:25;100923.80;;;39.20
67353;BMP180;54238;52.278;21.056;2023-07-09T14:27:54;100927.60;;;39.20
67353;BMP180;54238;52.278;21.056;2023-07-09T14:30:30;100923.20;;;39.04
67353;BMP180;54238;52.278;21.056;2023-07-09T14:33:07;100925.80;;;39.20
67353;BMP180;54238;52.278;21.056;2023-07-09T14:35:38;100921.80;;;39.10
67353;BMP180;54238;52.278;21.056;2023-07-09T14:38:25;100916.60;;;39.18
67353;BMP180;54238;52.278;21.056;2023-07-09T14:40:57;100917.20;;;39.30
67353;BMP180;54238;52.278;21.056;2023-07-09T14:43:26;100917.20;;;39.52
67353;BMP180;54238;52.278;21.056;2023-07-09T14:45:56;100914.40;;;39.36
67353;BMP180;54238;52.278;21.056;2023-07-09T14:48:25;100908.60;;;39.10
67353;BMP180;54238;52.278;21.056;2023-07-09T14:50:57;100912.40;;;38.90
67353;BMP180;54238;52.278;21.056;2023-07-09T14:53:27;100912.00;;;38.74
67353;BMP180;54238;52.278;21.056;2023-07-09T14:55:57;100922.60;;;38.32
67353;BMP180;54238;52.278;21.056;2023-07-09T14:58:26;100919.20;;;37.56
67353;BMP180;54238;52.278;21.056;2023-07-09T15:00:53;100920.60;;;36.88
67353;BMP180;54238;52.278;21.056;2023-07-09T15:03:27;100918.80;;;36.32
67353;BMP180;54238;52.278;21.056;2023-07-09T15:05:56;100919.00;;;36.00